sensor_id;sensor_type;location;lat;lon;timestamp;P1;durP1;ratioP1;P2;durP2;ratioP2
58360;SDS011;44164;44.954;10.068;2022-10-26T00:00:43;5.32;;;3.92;;
58360;SDS011;44164;44.954;10.068;2022-10-26T00:03:09;6.90;;;4.82;;
58360;SDS011;44164;44.954;10.068;2022-10-26T00:05:35;5.35;;;4.22;;
58360;SDS011;44164;44.954;10.068;2022-10-26T00:08:02;7.20;;;4.45;;
58360;SDS011;44164;44.954;10.068;2022-10-26T00:10:28;5.18;;;3.95;;
58360;SDS011;44164;44.954;10.068;2022-10-26T00:12:54;5.70;;;4.00;;
58360;SDS011;44164;44.954;10.068;2022-10-26T00:15:20;5.20;;;4.07;;
58360;SDS011;44164;44.954;10.068;2022-10-26T00:17:46;5.47;;;4.30;;
58360;SDS011;44164;44.954;10.068;2022-10-26T00:20:13;5.70;;;4.25;;
58360;SDS011;44164;44.954;10.068;2022-10-26T00:22:39;5.40;;;4.07;;
58360;SDS011;44164;44.954;10.068;2022-10-26T00:25:05;7.43;;;4.13;;
58360;SDS011;44164;44.954;10.068;2022-10-26T00:27:32;6.65;;;4.22;;
58360;SDS011;44164;44.954;10.068;2022-10-26T00:30:05;5.72;;;3.90;;
58360;SDS011;44164;44.954;10.068;2022-10-26T00:32:32;4.70;;;4.07;;
58360;SDS011;44164;44.954;10.068;2022-10-26T00:35:00;5.15;;;4.03;;
58360;SDS011;44164;44.954;10.068;2022-10-26T00:37:26;7.28;;;4.32;;
58360;SDS011;44164;44.954;10.068;2022-10-26T00:39:52;6.30;;;4.47;;
58360;SDS011;44164;44.954;10.068;2022-10-26T00:42:20;5.72;;;4.03;;
58360;SDS011;44164;44.954;10.068;2022-10-26T00:49:44;6.03;;;4.03;;
58360;SDS011;44164;44.954;10.068;2022-10-26T00:52:13;6.25;;;4.18;;
58360;SDS011;44164;44.954;10.068;2022-10-26T00:54:40;5.55;;;3.70;;
58360;SDS011;44164;44.954;10.068;2022-10-26T00:57:06;7.82;;;4.97;;
58360;SDS011;44164;44.954;10.068;2022-10-26T00:59:32;8.25;;;4.75;;
58360;SDS011;44164;44.954;10.068;2022-10-26T01:01:59;5.55;;;4.45;;
58360;SDS011;44164;44.954;10.068;2022-10-26T01:04:25;5.78;;;4.28;;
58360;SDS011;44164;44.954;10.068;2022-10-26T01:06:51;4.38;;;3.83;;
58360;SDS011;44164;44.954;10.068;2022-10-26T01:09:18;4.57;;;4.13;;
58360;SDS011;44164;44.954;10.068;2022-10-26T01:11:45;5.45;;;4.35;;
58360;SDS011;44164;44.954;10.068;2022-10-26T01:14:11;6.22;;;3.78;;
58360;SDS011;44164;44.954;10.068;2022-10-26T01:34:52;5.18;;;4.05;;
58360;SDS011;44164;44.954;10.068;2022-10-26T01:37:29;5.43;;;3.85;;
58360;SDS011;44164;44.954;10.068;2022-10-26T01:40:01;5.68;;;4.32;;
58360;SDS011;44164;44.954;10.068;2022-10-26T01:42:31;6.18;;;3.80;;
58360;SDS011;44164;44.954;10.068;2022-10-26T01:45:01;5.75;;;4.28;;
58360;SDS011;44164;44.954;10.068;2022-10-26T01:47:29;5.28;;;4.18;;
58360;SDS011;44164;44.954;10.068;2022-10-26T01:49:57;7.30;;;4.43;;
58360;SDS011;44164;44.954;10.068;2022-10-26T01:52:24;5.57;;;3.90;;
58360;SDS011;44164;44.954;10.068;2022-10-26T01:54:50;5.45;;;3.97;;
58360;SDS011;44164;44.954;10.068;2022-10-26T01:57:18;7.40;;;4.50;;
58360;SDS011;44164;44.954;10.068;2022-10-26T02:00:04;7.18;;;4.32;;
58360;SDS011;44164;44.954;10.068;2022-10-26T02:05:39;4.97;;;3.67;;
58360;SDS011;44164;44.954;10.068;2022-10-26T02:13:56;4.82;;;3.92;;
58360;SDS011;44164;44.954;10.068;2022-10-26T02:20:03;6.25;;;4.45;;
58360;SDS011;44164;44.954;10.068;2022-10-26T02:22:31;5.07;;;3.85;;
58360;SDS011;44164;44.954;10.068;2022-10-26T02:25:03;5.13;;;3.97;;
58360;SDS011;44164;44.954;10.068;2022-10-26T02:27:33;7.28;;;4.13;;
58360;SDS011;44164;44.954;10.068;2022-10-26T02:30:02;7.15;;;4.75;;
58360;SDS011;44164;44.954;10.068;2022-10-26T02:32:31;4.82;;;4.15;;
58360;SDS011;44164;44.954;10.068;2022-10-26T02:35:00;5.18;;;4.32;;
58360;SDS011;44164;44.954;10.068;2022-10-26T02:37:27;5.50;;;4.40;;
58360;SDS011;44164;44.954;10.068;2022-10-26T02:39:54;5.38;;;3.85;;
58360;SDS011;44164;44.954;10.068;2022-10-26T02:42:21;5.22;;;4.32;;
58360;SDS011;44164;44.954;10.068;2022-10-26T02:44:53;4.80;;;3.80;;
58360;SDS011;44164;44.954;10.068;2022-10-26T02:47:19;5.28;;;4.30;;
58360;SDS011;44164;44.954;10.068;2022-10-26T02:49:47;4.93;;;3.87;;
58360;SDS011;44164;44.954;10.068;2022-10-26T02:52:17;4.97;;;3.83;;
58360;SDS011;44164;44.954;10.068;2022-10-26T02:57:22;4.70;;;3.80;;
58360;SDS011;44164;44.954;10.068;2022-10-26T02:59:51;5.75;;;4.45;;
58360;SDS011;44164;44.954;10.068;2022-10-26T03:02:18;6.43;;;3.93;;
58360;SDS011;44164;44.954;10.068;2022-10-26T03:04:45;4.80;;;3.75;;
58360;SDS011;44164;44.954;10.068;2022-10-26T03:07:12;5.63;;;4.22;;
58360;SDS011;44164;44.954;10.068;2022-10-26T03:09:38;6.35;;;3.72;;
58360;SDS011;44164;44.954;10.068;2022-10-26T03:12:04;6.30;;;4.32;;
58360;SDS011;44164;44.954;10.068;2022-10-26T03:14:30;5.20;;;4.22;;
58360;SDS011;44164;44.954;10.068;2022-10-26T03:16:56;4.78;;;4.28;;
58360;SDS011;44164;44.954;10.068;2022-10-26T03:19:22;4.63;;;3.88;;
58360;SDS011;44164;44.954;10.068;2022-10-26T03:21:48;7.43;;;3.88;;
58360;SDS011;44164;44.954;10.068;2022-10-26T03:24:15;5.90;;;3.90;;
58360;SDS011;44164;44.954;10.068;2022-10-26T03:26:41;3.70;;;3.30;;
58360;SDS011;44164;44.954;10.068;2022-10-26T03:29:07;6.03;;;4.25;;
58360;SDS011;44164;44.954;10.068;2022-10-26T03:31:33;4.97;;;4.07;;
58360;SDS011;44164;44.954;10.068;2022-10-26T03:34:00;5.45;;;3.83;;
58360;SDS011;44164;44.954;10.068;2022-10-26T03:36:26;5.18;;;4.28;;
58360;SDS011;44164;44.954;10.068;2022-10-26T03:38:52;6.13;;;4.22;;
58360;SDS011;44164;44.954;10.068;2022-10-26T03:41:18;5.18;;;4.10;;
58360;SDS011;44164;44.954;10.068;2022-10-26T03:43:44;4.82;;;4.03;;
58360;SDS011;44164;44.954;10.068;2022-10-26T03:46:10;6.82;;;4.43;;
58360;SDS011;44164;44.954;10.068;2022-10-26T03:48:36;6.53;;;4.38;;
58360;SDS011;44164;44.954;10.068;2022-10-26T03:51:02;5.93;;;3.72;;
58360;SDS011;44164;44.954;10.068;2022-10-26T03:53:29;5.28;;;3.78;;
58360;SDS011;44164;44.954;10.068;2022-10-26T03:55:55;5.60;;;3.92;;
58360;SDS011;44164;44.954;10.068;2022-10-26T03:58:21;6.97;;;4.35;;
58360;SDS011;44164;44.954;10.068;2022-10-26T04:00:47;5.80;;;4.28;;
58360;SDS011;44164;44.954;10.068;2022-10-26T04:03:13;4.15;;;3.47;;
58360;SDS011;44164;44.954;10.068;2022-10-26T04:05:39;5.75;;;3.90;;
58360;SDS011;44164;44.954;10.068;2022-10-26T04:08:05;4.70;;;4.03;;
58360;SDS011;44164;44.954;10.068;2022-10-26T04:10:31;5.13;;;4.07;;
58360;SDS011;44164;44.954;10.068;2022-10-26T04:12:58;5.60;;;3.63;;
58360;SDS011;44164;44.954;10.068;2022-10-26T04:15:26;5.65;;;4.03;;
58360;SDS011;44164;44.954;10.068;2022-10-26T04:17:59;8.63;;;4.60;;
58360;SDS011;44164;44.954;10.068;2022-10-26T04:20:27;6.32;;;4.60;;
58360;SDS011;44164;44.954;10.068;2022-10-26T04:23:01;5.60;;;4.23;;
58360;SDS011;44164;44.954;10.068;2022-10-26T04:25:29;5.50;;;4.30;;
58360;SDS011;44164;44.954;10.068;2022-10-26T04:27:55;7.07;;;4.55;;
58360;SDS011;44164;44.954;10.068;2022-10-26T04:30:22;5.68;;;3.70;;
58360;SDS011;44164;44.954;10.068;2022-10-26T04:32:48;4.68;;;3.78;;
58360;SDS011;44164;44.954;10.068;2022-10-26T04:35:14;4.68;;;3.60;;
58360;SDS011;44164;44.954;10.068;2022-10-26T04:37:41;6.20;;;4.07;;
58360;SDS011;44164;44.954;10.068;2022-10-26T04:40:07;4.57;;;3.78;;
58360;SDS011;44164;44.954;10.068;2022-10-26T04:42:43;5.60;;;4.72;;
58360;SDS011;44164;44.954;10.068;2022-10-26T04:45:11;5.47;;;4.35;;
58360;SDS011;44164;44.954;10.068;2022-10-26T04:47:38;5.63;;;3.92;;
58360;SDS011;44164;44.954;10.068;2022-10-26T04:50:05;7.35;;;3.75;;
58360;SDS011;44164;44.954;10.068;2022-10-26T04:52:32;5.85;;;3.83;;
58360;SDS011;44164;44.954;10.068;2022-10-26T04:54:59;5.70;;;4.15;;
58360;SDS011;44164;44.954;10.068;2022-10-26T04:57:25;5.32;;;4.07;;
58360;SDS011;44164;44.954;10.068;2022-10-26T04:59:51;7.45;;;4.70;;
58360;SDS011;44164;44.954;10.068;2022-10-26T05:02:17;5.22;;;4.30;;
58360;SDS011;44164;44.954;10.068;2022-10-26T05:04:45;7.95;;;4.82;;
58360;SDS011;44164;44.954;10.068;2022-10-26T05:07:12;4.88;;;4.35;;
58360;SDS011;44164;44.954;10.068;2022-10-26T05:09:38;5.35;;;4.63;;
58360;SDS011;44164;44.954;10.068;2022-10-26T05:12:04;6.63;;;4.53;;
58360;SDS011;44164;44.954;10.068;2022-10-26T05:14:30;5.53;;;4.70;;
58360;SDS011;44164;44.954;10.068;2022-10-26T05:16:56;9.48;;;4.60;;
58360;SDS011;44164;44.954;10.068;2022-10-26T05:19:22;7.32;;;4.07;;
58360;SDS011;44164;44.954;10.068;2022-10-26T05:21:49;7.43;;;4.75;;
58360;SDS011;44164;44.954;10.068;2022-10-26T05:24:18;6.97;;;4.40;;
58360;SDS011;44164;44.954;10.068;2022-10-26T05:26:44;6.57;;;4.30;;
58360;SDS011;44164;44.954;10.068;2022-10-26T05:29:10;4.70;;;4.13;;
58360;SDS011;44164;44.954;10.068;2022-10-26T05:31:36;5.70;;;4.47;;
58360;SDS011;44164;44.954;10.068;2022-10-26T05:34:02;6.18;;;4.22;;
58360;SDS011;44164;44.954;10.068;2022-10-26T05:36:28;8.35;;;4.88;;
58360;SDS011;44164;44.954;10.068;2022-10-26T05:38:58;6.55;;;4.03;;
58360;SDS011;44164;44.954;10.068;2022-10-26T05:41:24;6.45;;;4.47;;
58360;SDS011;44164;44.954;10.068;2022-10-26T05:43:50;5.28;;;4.30;;
58360;SDS011;44164;44.954;10.068;2022-10-26T05:46:16;6.32;;;4.38;;
58360;SDS011;44164;44.954;10.068;2022-10-26T05:48:43;6.78;;;4.57;;
58360;SDS011;44164;44.954;10.068;2022-10-26T05:51:09;9.63;;;4.60;;
58360;SDS011;44164;44.954;10.068;2022-10-26T05:56:10;7.47;;;4.38;;
58360;SDS011;44164;44.954;10.068;2022-10-26T05:58:41;10.10;;;4.75;;
58360;SDS011;44164;44.954;10.068;2022-10-26T06:04:24;6.68;;;4.53;;
58360;SDS011;44164;44.954;10.068;2022-10-26T06:06:40;10.55;;;5.70;;
58360;SDS011;44164;44.954;10.068;2022-10-26T06:09:10;7.00;;;5.15;;
58360;SDS011;44164;44.954;10.068;2022-10-26T06:11:36;8.05;;;5.03;;
58360;SDS011;44164;44.954;10.068;2022-10-26T06:14:03;7.10;;;4.53;;
58360;SDS011;44164;44.954;10.068;2022-10-26T06:19:44;6.15;;;4.68;;
58360;SDS011;44164;44.954;10.068;2022-10-26T06:22:34;8.57;;;4.97;;
58360;SDS011;44164;44.954;10.068;2022-10-26T06:24:48;10.23;;;5.20;;
58360;SDS011;44164;44.954;10.068;2022-10-26T06:30:02;6.97;;;5.13;;
58360;SDS011;44164;44.954;10.068;2022-10-26T06:32:34;11.93;;;5.90;;
58360;SDS011;44164;44.954;10.068;2022-10-26T06:38:23;9.48;;;5.20;;
58360;SDS011;44164;44.954;10.068;2022-10-26T06:40:51;9.93;;;5.32;;
58360;SDS011;44164;44.954;10.068;2022-10-26T06:43:31;7.20;;;4.97;;
58360;SDS011;44164;44.954;10.068;2022-10-26T06:48:59;9.85;;;5.35;;
58360;SDS011;44164;44.954;10.068;2022-10-26T06:51:26;9.38;;;5.07;;
58360;SDS011;44164;44.954;10.068;2022-10-26T06:53:56;12.10;;;5.65;;
58360;SDS011;44164;44.954;10.068;2022-10-26T06:56:27;9.25;;;5.20;;
58360;SDS011;44164;44.954;10.068;2022-10-26T06:58:53;11.70;;;5.88;;
58360;SDS011;44164;44.954;10.068;2022-10-26T07:01:20;8.95;;;5.72;;
58360;SDS011;44164;44.954;10.068;2022-10-26T07:03:47;7.82;;;5.35;;
58360;SDS011;44164;44.954;10.068;2022-10-26T07:06:13;11.13;;;5.38;;
58360;SDS011;44164;44.954;10.068;2022-10-26T07:08:39;10.65;;;5.53;;
58360;SDS011;44164;44.954;10.068;2022-10-26T07:11:05;7.45;;;5.60;;
58360;SDS011;44164;44.954;10.068;2022-10-26T07:13:31;8.13;;;5.25;;
58360;SDS011;44164;44.954;10.068;2022-10-26T07:15:57;7.70;;;5.53;;
58360;SDS011;44164;44.954;10.068;2022-10-26T07:18:23;9.57;;;6.32;;
58360;SDS011;44164;44.954;10.068;2022-10-26T07:20:49;9.40;;;5.85;;
58360;SDS011;44164;44.954;10.068;2022-10-26T07:23:15;7.57;;;5.13;;
58360;SDS011;44164;44.954;10.068;2022-10-26T07:25:41;8.60;;;5.93;;
58360;SDS011;44164;44.954;10.068;2022-10-26T07:28:08;6.50;;;5.10;;
58360;SDS011;44164;44.954;10.068;2022-10-26T07:30:35;11.85;;;5.70;;
58360;SDS011;44164;44.954;10.068;2022-10-26T07:33:09;9.70;;;5.20;;
58360;SDS011;44164;44.954;10.068;2022-10-26T07:35:36;10.60;;;5.35;;
58360;SDS011;44164;44.954;10.068;2022-10-26T07:38:03;10.63;;;5.18;;
58360;SDS011;44164;44.954;10.068;2022-10-26T07:40:29;11.13;;;5.45;;
58360;SDS011;44164;44.954;10.068;2022-10-26T07:42:56;8.13;;;5.00;;
58360;SDS011;44164;44.954;10.068;2022-10-26T07:45:24;8.13;;;5.13;;
58360;SDS011;44164;44.954;10.068;2022-10-26T07:47:51;10.10;;;5.22;;
58360;SDS011;44164;44.954;10.068;2022-10-26T07:50:17;7.63;;;4.90;;
58360;SDS011;44164;44.954;10.068;2022-10-26T07:52:43;7.75;;;5.88;;
58360;SDS011;44164;44.954;10.068;2022-10-26T07:55:10;7.40;;;4.80;;
58360;SDS011;44164;44.954;10.068;2022-10-26T07:57:37;8.68;;;5.18;;
58360;SDS011;44164;44.954;10.068;2022-10-26T08:00:04;8.10;;;5.03;;
58360;SDS011;44164;44.954;10.068;2022-10-26T08:02:32;8.60;;;5.25;;
58360;SDS011;44164;44.954;10.068;2022-10-26T08:04:59;8.15;;;5.15;;
58360;SDS011;44164;44.954;10.068;2022-10-26T08:07:25;7.10;;;4.70;;
58360;SDS011;44164;44.954;10.068;2022-10-26T08:09:51;8.90;;;5.47;;
58360;SDS011;44164;44.954;10.068;2022-10-26T08:12:18;6.75;;;5.07;;
58360;SDS011;44164;44.954;10.068;2022-10-26T08:14:44;7.35;;;5.03;;
58360;SDS011;44164;44.954;10.068;2022-10-26T08:17:11;7.70;;;4.80;;
58360;SDS011;44164;44.954;10.068;2022-10-26T08:19:37;7.68;;;5.15;;
58360;SDS011;44164;44.954;10.068;2022-10-26T08:22:03;7.85;;;4.78;;
58360;SDS011;44164;44.954;10.068;2022-10-26T08:24:29;6.43;;;4.18;;
58360;SDS011;44164;44.954;10.068;2022-10-26T08:26:55;8.52;;;5.40;;
58360;SDS011;44164;44.954;10.068;2022-10-26T08:29:21;7.45;;;5.20;;
58360;SDS011;44164;44.954;10.068;2022-10-26T08:31:47;8.43;;;5.50;;
58360;SDS011;44164;44.954;10.068;2022-10-26T08:34:13;5.60;;;4.15;;
58360;SDS011;44164;44.954;10.068;2022-10-26T08:36:40;8.05;;;4.40;;
58360;SDS011;44164;44.954;10.068;2022-10-26T08:39:06;9.63;;;5.63;;
58360;SDS011;44164;44.954;10.068;2022-10-26T08:41:34;7.45;;;4.85;;
58360;SDS011;44164;44.954;10.068;2022-10-26T08:46:44;6.88;;;4.55;;
58360;SDS011;44164;44.954;10.068;2022-10-26T08:51:44;6.00;;;4.68;;
58360;SDS011;44164;44.954;10.068;2022-10-26T08:54:12;6.13;;;4.50;;
58360;SDS011;44164;44.954;10.068;2022-10-26T08:56:44;5.80;;;4.70;;
58360;SDS011;44164;44.954;10.068;2022-10-26T09:01:51;8.02;;;4.63;;
58360;SDS011;44164;44.954;10.068;2022-10-26T09:04:17;5.30;;;4.50;;
58360;SDS011;44164;44.954;10.068;2022-10-26T09:10:07;6.30;;;4.78;;
58360;SDS011;44164;44.954;10.068;2022-10-26T09:15:47;6.63;;;4.15;;
58360;SDS011;44164;44.954;10.068;2022-10-26T09:18:30;5.22;;;4.28;;
58360;SDS011;44164;44.954;10.068;2022-10-26T09:21:09;6.60;;;4.45;;
58360;SDS011;44164;44.954;10.068;2022-10-26T09:26:15;6.03;;;4.40;;
58360;SDS011;44164;44.954;10.068;2022-10-26T09:29:10;7.40;;;4.20;;
58360;SDS011;44164;44.954;10.068;2022-10-26T09:31:39;5.50;;;4.65;;
58360;SDS011;44164;44.954;10.068;2022-10-26T09:34:17;6.47;;;4.78;;
58360;SDS011;44164;44.954;10.068;2022-10-26T09:36:53;6.90;;;4.45;;
58360;SDS011;44164;44.954;10.068;2022-10-26T09:39:25;5.88;;;4.20;;
58360;SDS011;44164;44.954;10.068;2022-10-26T09:42:00;5.80;;;4.32;;
58360;SDS011;44164;44.954;10.068;2022-10-26T09:44:43;6.75;;;4.10;;
58360;SDS011;44164;44.954;10.068;2022-10-26T09:47:30;6.65;;;4.53;;
58360;SDS011;44164;44.954;10.068;2022-10-26T09:50:01;5.38;;;3.85;;
58360;SDS011;44164;44.954;10.068;2022-10-26T09:52:48;6.15;;;4.40;;
58360;SDS011;44164;44.954;10.068;2022-10-26T09:55:14;5.50;;;3.83;;
58360;SDS011;44164;44.954;10.068;2022-10-26T09:57:41;6.20;;;4.22;;
58360;SDS011;44164;44.954;10.068;2022-10-26T10:00:14;6.30;;;3.67;;
58360;SDS011;44164;44.954;10.068;2022-10-26T10:02:42;5.93;;;4.47;;
58360;SDS011;44164;44.954;10.068;2022-10-26T10:08:09;5.03;;;3.65;;
58360;SDS011;44164;44.954;10.068;2022-10-26T10:11:07;6.10;;;4.40;;
58360;SDS011;44164;44.954;10.068;2022-10-26T10:13:37;5.78;;;4.22;;
58360;SDS011;44164;44.954;10.068;2022-10-26T10:16:26;6.50;;;4.00;;
58360;SDS011;44164;44.954;10.068;2022-10-26T10:18:54;6.10;;;3.95;;
58360;SDS011;44164;44.954;10.068;2022-10-26T10:21:34;5.78;;;4.20;;
58360;SDS011;44164;44.954;10.068;2022-10-26T10:24:02;7.45;;;4.80;;
58360;SDS011;44164;44.954;10.068;2022-10-26T10:27:00;5.60;;;3.70;;
58360;SDS011;44164;44.954;10.068;2022-10-26T10:29:38;4.50;;;3.88;;
58360;SDS011;44164;44.954;10.068;2022-10-26T10:32:10;6.43;;;4.03;;
58360;SDS011;44164;44.954;10.068;2022-10-26T10:34:40;4.75;;;3.63;;
58360;SDS011;44164;44.954;10.068;2022-10-26T10:37:12;5.20;;;3.63;;
58360;SDS011;44164;44.954;10.068;2022-10-26T10:39:48;6.38;;;4.53;;
58360;SDS011;44164;44.954;10.068;2022-10-26T10:42:16;6.65;;;3.63;;
58360;SDS011;44164;44.954;10.068;2022-10-26T10:44:44;5.28;;;3.78;;
58360;SDS011;44164;44.954;10.068;2022-10-26T10:47:21;5.18;;;3.85;;
58360;SDS011;44164;44.954;10.068;2022-10-26T10:50:26;5.47;;;3.85;;
58360;SDS011;44164;44.954;10.068;2022-10-26T10:52:44;5.15;;;3.70;;
58360;SDS011;44164;44.954;10.068;2022-10-26T10:58:28;6.95;;;4.28;;
58360;SDS011;44164;44.954;10.068;2022-10-26T11:00:48;4.85;;;4.00;;
58360;SDS011;44164;44.954;10.068;2022-10-26T11:08:58;5.13;;;3.63;;
58360;SDS011;44164;44.954;10.068;2022-10-26T11:14:02;5.70;;;3.85;;
58360;SDS011;44164;44.954;10.068;2022-10-26T11:19:19;4.85;;;3.40;;
58360;SDS011;44164;44.954;10.068;2022-10-26T11:21:50;6.20;;;4.00;;
58360;SDS011;44164;44.954;10.068;2022-10-26T11:30:01;5.30;;;4.17;;
58360;SDS011;44164;44.954;10.068;2022-10-26T11:32:44;6.28;;;3.65;;
58360;SDS011;44164;44.954;10.068;2022-10-26T11:38:16;9.00;;;4.53;;
58360;SDS011;44164;44.954;10.068;2022-10-26T11:43:20;5.78;;;4.13;;
58360;SDS011;44164;44.954;10.068;2022-10-26T11:46:04;5.55;;;3.70;;
58360;SDS011;44164;44.954;10.068;2022-10-26T11:48:58;8.73;;;4.70;;
58360;SDS011;44164;44.954;10.068;2022-10-26T11:54:00;6.65;;;3.72;;
58360;SDS011;44164;44.954;10.068;2022-10-26T11:56:33;6.07;;;4.10;;
58360;SDS011;44164;44.954;10.068;2022-10-26T11:59:01;5.30;;;3.50;;
58360;SDS011;44164;44.954;10.068;2022-10-26T12:01:28;5.10;;;3.70;;
58360;SDS011;44164;44.954;10.068;2022-10-26T12:03:54;8.23;;;4.60;;
58360;SDS011;44164;44.954;10.068;2022-10-26T12:06:26;7.13;;;3.40;;
58360;SDS011;44164;44.954;10.068;2022-10-26T12:09:03;5.25;;;3.20;;
58360;SDS011;44164;44.954;10.068;2022-10-26T12:11:41;5.10;;;3.10;;
58360;SDS011;44164;44.954;10.068;2022-10-26T12:19:49;6.22;;;4.18;;
58360;SDS011;44164;44.954;10.068;2022-10-26T12:22:21;5.22;;;3.60;;
58360;SDS011;44164;44.954;10.068;2022-10-26T12:32:47;6.22;;;3.88;;
58360;SDS011;44164;44.954;10.068;2022-10-26T12:37:57;6.93;;;3.45;;
58360;SDS011;44164;44.954;10.068;2022-10-26T13:07:21;10.00;;;3.47;;
58360;SDS011;44164;44.954;10.068;2022-10-26T13:09:56;6.32;;;3.42;;
58360;SDS011;44164;44.954;10.068;2022-10-26T13:12:24;4.60;;;3.05;;
58360;SDS011;44164;44.954;10.068;2022-10-26T13:14:54;6.43;;;3.22;;
58360;SDS011;44164;44.954;10.068;2022-10-26T13:20:20;5.55;;;3.83;;
58360;SDS011;44164;44.954;10.068;2022-10-26T13:22:46;4.82;;;3.50;;
58360;SDS011;44164;44.954;10.068;2022-10-26T13:25:17;7.32;;;3.53;;
58360;SDS011;44164;44.954;10.068;2022-10-26T13:28:05;5.75;;;3.47;;
58360;SDS011;44164;44.954;10.068;2022-10-26T13:30:52;5.57;;;3.28;;
58360;SDS011;44164;44.954;10.068;2022-10-26T13:33:25;6.25;;;3.08;;
58360;SDS011;44164;44.954;10.068;2022-10-26T13:35:56;5.65;;;3.85;;
58360;SDS011;44164;44.954;10.068;2022-10-26T13:38:26;8.50;;;3.38;;
58360;SDS011;44164;44.954;10.068;2022-10-26T13:40:59;5.13;;;3.15;;
58360;SDS011;44164;44.954;10.068;2022-10-26T13:43:32;7.47;;;3.28;;
58360;SDS011;44164;44.954;10.068;2022-10-26T13:46:01;6.70;;;3.33;;
58360;SDS011;44164;44.954;10.068;2022-10-26T13:51:09;6.10;;;3.47;;
58360;SDS011;44164;44.954;10.068;2022-10-26T13:53:50;6.00;;;3.53;;
58360;SDS011;44164;44.954;10.068;2022-10-26T13:59:09;6.65;;;3.20;;
58360;SDS011;44164;44.954;10.068;2022-10-26T14:01:37;5.57;;;3.50;;
58360;SDS011;44164;44.954;10.068;2022-10-26T14:04:14;5.90;;;3.20;;
58360;SDS011;44164;44.954;10.068;2022-10-26T14:06:41;5.72;;;2.83;;
58360;SDS011;44164;44.954;10.068;2022-10-26T14:09:14;7.90;;;3.13;;
58360;SDS011;44164;44.954;10.068;2022-10-26T14:14:14;9.32;;;3.40;;
58360;SDS011;44164;44.954;10.068;2022-10-26T14:16:43;6.22;;;3.28;;
58360;SDS011;44164;44.954;10.068;2022-10-26T14:19:15;5.70;;;3.30;;
58360;SDS011;44164;44.954;10.068;2022-10-26T14:22:03;8.95;;;3.42;;
58360;SDS011;44164;44.954;10.068;2022-10-26T14:24:30;8.32;;;3.72;;
58360;SDS011;44164;44.954;10.068;2022-10-26T14:26:57;5.97;;;3.40;;
58360;SDS011;44164;44.954;10.068;2022-10-26T14:29:24;6.00;;;3.00;;
58360;SDS011;44164;44.954;10.068;2022-10-26T14:31:52;5.68;;;3.42;;
58360;SDS011;44164;44.954;10.068;2022-10-26T14:34:19;4.88;;;3.22;;
58360;SDS011;44164;44.954;10.068;2022-10-26T14:36:57;5.53;;;3.15;;
58360;SDS011;44164;44.954;10.068;2022-10-26T14:39:40;6.88;;;3.63;;
58360;SDS011;44164;44.954;10.068;2022-10-26T14:44:56;6.88;;;3.55;;
58360;SDS011;44164;44.954;10.068;2022-10-26T14:47:27;6.97;;;3.45;;
58360;SDS011;44164;44.954;10.068;2022-10-26T14:49:54;6.65;;;3.30;;
58360;SDS011;44164;44.954;10.068;2022-10-26T14:52:22;8.02;;;3.35;;
58360;SDS011;44164;44.954;10.068;2022-10-26T14:55:02;8.53;;;4.03;;
58360;SDS011;44164;44.954;10.068;2022-10-26T14:57:39;9.45;;;3.45;;
58360;SDS011;44164;44.954;10.068;2022-10-26T15:02:40;5.75;;;3.30;;
58360;SDS011;44164;44.954;10.068;2022-10-26T15:07:52;6.07;;;2.95;;
58360;SDS011;44164;44.954;10.068;2022-10-26T15:16:30;6.63;;;3.63;;
58360;SDS011;44164;44.954;10.068;2022-10-26T15:18:57;4.03;;;3.20;;
58360;SDS011;44164;44.954;10.068;2022-10-26T15:24:32;6.53;;;2.92;;
58360;SDS011;44164;44.954;10.068;2022-10-26T15:27:01;5.53;;;3.10;;
58360;SDS011;44164;44.954;10.068;2022-10-26T15:29:38;6.95;;;3.80;;
58360;SDS011;44164;44.954;10.068;2022-10-26T15:37:41;7.75;;;3.38;;
58360;SDS011;44164;44.954;10.068;2022-10-26T15:40:07;7.70;;;3.00;;
58360;SDS011;44164;44.954;10.068;2022-10-26T15:42:36;5.15;;;3.38;;
58360;SDS011;44164;44.954;10.068;2022-10-26T15:45:04;5.10;;;3.60;;
58360;SDS011;44164;44.954;10.068;2022-10-26T15:47:40;5.80;;;2.90;;
58360;SDS011;44164;44.954;10.068;2022-10-26T15:50:10;5.78;;;3.13;;
58360;SDS011;44164;44.954;10.068;2022-10-26T15:52:40;4.43;;;3.10;;
58360;SDS011;44164;44.954;10.068;2022-10-26T15:55:07;6.20;;;3.63;;
58360;SDS011;44164;44.954;10.068;2022-10-26T15:57:33;4.97;;;3.13;;
58360;SDS011;44164;44.954;10.068;2022-10-26T16:00:00;4.40;;;2.90;;
58360;SDS011;44164;44.954;10.068;2022-10-26T16:02:26;5.13;;;3.72;;
58360;SDS011;44164;44.954;10.068;2022-10-26T16:04:52;4.20;;;2.45;;
58360;SDS011;44164;44.954;10.068;2022-10-26T16:07:18;4.32;;;2.35;;
58360;SDS011;44164;44.954;10.068;2022-10-26T16:09:50;5.20;;;3.10;;
58360;SDS011;44164;44.954;10.068;2022-10-26T16:12:16;5.38;;;3.60;;
58360;SDS011;44164;44.954;10.068;2022-10-26T16:14:43;6.00;;;3.13;;
58360;SDS011;44164;44.954;10.068;2022-10-26T16:17:09;5.95;;;2.97;;
58360;SDS011;44164;44.954;10.068;2022-10-26T16:19:35;4.68;;;3.28;;
58360;SDS011;44164;44.954;10.068;2022-10-26T16:22:01;4.78;;;2.83;;
58360;SDS011;44164;44.954;10.068;2022-10-26T16:24:27;4.82;;;2.80;;
58360;SDS011;44164;44.954;10.068;2022-10-26T16:26:55;4.95;;;3.72;;
58360;SDS011;44164;44.954;10.068;2022-10-26T16:29:21;5.57;;;3.13;;
58360;SDS011;44164;44.954;10.068;2022-10-26T16:31:47;4.65;;;3.10;;
58360;SDS011;44164;44.954;10.068;2022-10-26T16:34:13;4.97;;;3.40;;
58360;SDS011;44164;44.954;10.068;2022-10-26T16:36:39;5.20;;;3.20;;
58360;SDS011;44164;44.954;10.068;2022-10-26T16:39:06;5.32;;;3.30;;
58360;SDS011;44164;44.954;10.068;2022-10-26T16:41:32;7.13;;;3.30;;
58360;SDS011;44164;44.954;10.068;2022-10-26T16:43:59;6.32;;;3.08;;
58360;SDS011;44164;44.954;10.068;2022-10-26T16:46:25;6.63;;;3.40;;
58360;SDS011;44164;44.954;10.068;2022-10-26T16:48:51;31.63;;;5.85;;
58360;SDS011;44164;44.954;10.068;2022-10-26T16:51:21;47.42;;;7.25;;
58360;SDS011;44164;44.954;10.068;2022-10-26T16:53:50;48.83;;;7.78;;
58360;SDS011;44164;44.954;10.068;2022-10-26T16:56:18;48.78;;;7.95;;
58360;SDS011;44164;44.954;10.068;2022-10-26T16:58:48;50.90;;;7.80;;
58360;SDS011;44164;44.954;10.068;2022-10-26T17:01:15;58.10;;;9.18;;
58360;SDS011;44164;44.954;10.068;2022-10-26T17:03:43;42.67;;;7.95;;
58360;SDS011;44164;44.954;10.068;2022-10-26T17:06:10;27.90;;;6.63;;
58360;SDS011;44164;44.954;10.068;2022-10-26T17:08:37;30.13;;;5.95;;
58360;SDS011;44164;44.954;10.068;2022-10-26T17:11:05;18.50;;;4.97;;
58360;SDS011;44164;44.954;10.068;2022-10-26T17:13:35;18.20;;;5.07;;
58360;SDS011;44164;44.954;10.068;2022-10-26T17:16:20;23.77;;;4.93;;
58360;SDS011;44164;44.954;10.068;2022-10-26T17:18:48;20.88;;;4.60;;
58360;SDS011;44164;44.954;10.068;2022-10-26T17:21:15;16.80;;;4.22;;
58360;SDS011;44164;44.954;10.068;2022-10-26T17:26:09;19.20;;;4.85;;
58360;SDS011;44164;44.954;10.068;2022-10-26T17:31:09;13.05;;;4.43;;
58360;SDS011;44164;44.954;10.068;2022-10-26T17:33:37;10.57;;;4.30;;
58360;SDS011;44164;44.954;10.068;2022-10-26T17:36:05;17.30;;;4.30;;
58360;SDS011;44164;44.954;10.068;2022-10-26T17:38:33;9.15;;;4.00;;
58360;SDS011;44164;44.954;10.068;2022-10-26T17:41:01;12.50;;;3.72;;
58360;SDS011;44164;44.954;10.068;2022-10-26T17:43:32;10.43;;;5.07;;
58360;SDS011;44164;44.954;10.068;2022-10-26T17:46:00;13.00;;;3.85;;
58360;SDS011;44164;44.954;10.068;2022-10-26T17:48:27;13.20;;;4.70;;
58360;SDS011;44164;44.954;10.068;2022-10-26T17:50:56;13.77;;;4.88;;